Darstellungsparameter: Aktuell verwendete Einstellungen:
Skalierung der Graphiken ... ?
xyx+y,   Skalierungsfaktor:      Skalierung: Modus: x, Faktor: 1
Darstellungszeitraum ... ?
Vom - - bis: - -   Zeitraum: 21.12.2010 - 19.01.2011
Min/Max/Avg-Anzeige ... ?
Zeige MMA aktuell
Zeige MMA Monat
Zeige MMA alles
Zeige --A aktuell
Zeige --A Monat
Zeige --A alles
Keine MMA-Anzeige
MMA:
Average (ber die Originaldaten)
MMA-Basis: 21.12.2010 - 19.01.2011
Quicknavigation für Darstellung... ?
Tage:      1T, 2T, 3T, 5T -1T -2T -3T -5T +1T +2T +3T +5T
Wochen: 1W, 2W, 3W -1W -2W -3W +1W +2W +3W
Monate: 1M, 3M, 6M -1M -3M -6M +1M +3M +6M
Jahre:    1J, 3J, 5J, 10J -1J -3J -5J -10J +1J +3J +5J +10J
Nutze für die Darstellung ... ?
Originaldaten oder ...
Mittelwerte Minima Maxima auf...
Stundenbasis Tagesbasis Wochenbasis
Monatsbasis Jahresbasis      Datenbasis: Mittelwerte auf Stundenbasis
Darstellen als:
Statistik (Auto) Statistik J:M      Darstellung:
Zur Graphik,    zurück zur Übersicht aller Sensoren.
 
Tabellarische Datenbersicht: ?
 
Sensor: Nr:Datum:Temp:Abs-Feuchte:Windchill:Wind:
Aussen-T/F 1 21-12-2010 00:00:00 -3.62 C 3.33 g/m*3 -3.62 C 0 km/h
2 21-12-2010 01:00:00 -2.88 C 3.53 g/m*3 -2.88 C 0 km/h
3 21-12-2010 02:00:00 -2.6 C 3.6 g/m*3 -2.6 C 0 km/h
4 21-12-2010 03:00:00 -2.54 C 3.57 g/m*3 -2.54 C 0 km/h
5 21-12-2010 04:00:00 -2.14 C 3.67 g/m*3 -2.14 C 0 km/h
6 21-12-2010 05:00:00 -1.88 C 3.76 g/m*3 -1.88 C 0 km/h
7 21-12-2010 06:00:00 -1.78 C 3.81 g/m*3 -1.78 C 0 km/h
8 21-12-2010 07:00:00 -1.7 C 3.83 g/m*3 -1.7 C 0 km/h
9 21-12-2010 08:00:00 -1.64 C 3.85 g/m*3 -1.64 C 0 km/h
10 21-12-2010 09:00:00 -1.24 C 3.91 g/m*3 -1.24 C 0 km/h
11 21-12-2010 10:00:00 -0.6 C 3.91 g/m*3 -0.6 C 0 km/h
12 21-12-2010 11:00:00 0.5 C 3.98 g/m*3 0.5 C 0 km/h
13 21-12-2010 12:00:00 1.14 C 3.97 g/m*3 1.14 C 0 km/h
14 21-12-2010 13:00:00 1.44 C 4.12 g/m*3 1.44 C 0 km/h
15 21-12-2010 14:00:00 1.24 C 4.06 g/m*3 1.24 C 0 km/h
16 21-12-2010 15:00:00 1.18 C 4.18 g/m*3 1.18 C 0 km/h
17 21-12-2010 16:00:00 0.58 C 4.2 g/m*3 0.58 C 0 km/h
18 21-12-2010 17:00:00 0.16 C 4.28 g/m*3 0.16 C 0 km/h
19 21-12-2010 18:00:00 0.18 C 4.38 g/m*3 0.18 C 0 km/h
20 21-12-2010 19:00:00 0.12 C 4.4 g/m*3 0.12 C 0 km/h
21 21-12-2010 20:00:00 0.12 C 4.4 g/m*3 0.12 C 0 km/h
22 21-12-2010 21:00:00 0.12 C 4.45 g/m*3 0.12 C 0 km/h
23 21-12-2010 22:00:00 0.15 C 4.45 g/m*3 0.15 C 0 km/h
24 21-12-2010 23:00:00 0.12 C 4.45 g/m*3 0.12 C 0 km/h
25 22-12-2010 00:00:00 0.1 C 4.48 g/m*3 0.1 C 0 km/h
Sensor: Nr:Datum:Temp:Abs-Feuchte:Windchill:Wind:
Aussen-T/F 26 22-12-2010 01:00:00 0.16 C 4.51 g/m*3 0.16 C 0 km/h
27 22-12-2010 02:00:00 0.2 C 4.52 g/m*3 0.2 C 0 km/h
28 22-12-2010 03:00:00 0.16 C 4.51 g/m*3 0.16 C 0 km/h
29 22-12-2010 04:00:00 0.28 C 4.54 g/m*3 0.28 C 0 km/h
30 22-12-2010 05:00:00 0.3 C 4.55 g/m*3 0.3 C 0 km/h
31 22-12-2010 06:00:00 0.3 C 4.55 g/m*3 0.3 C 0 km/h
32 22-12-2010 07:00:00 0.3 C 4.57 g/m*3 0.3 C 0 km/h
33 22-12-2010 08:00:00 0.34 C 4.61 g/m*3 0.34 C 0 km/h
34 22-12-2010 09:00:00 0.7 C 4.73 g/m*3 0.7 C 0 km/h
35 22-12-2010 10:00:00 1.38 C 4.9 g/m*3 1.38 C 0 km/h
36 22-12-2010 11:00:00 2.3 C 5.02 g/m*3 2.3 C 0 km/h
37 22-12-2010 12:00:00 2.76 C 4.89 g/m*3 2.76 C 0 km/h
38 22-12-2010 13:00:00 2.38 C 4.73 g/m*3 2.38 C 0 km/h
39 22-12-2010 14:00:00 2.4 C 4.76 g/m*3 2.4 C 0 km/h
40 22-12-2010 15:00:00 1.66 C 4.59 g/m*3 1.66 C 0 km/h
41 22-12-2010 16:00:00 1.16 C 4.6 g/m*3 1.16 C 0 km/h
42 22-12-2010 17:00:00 0.8 C 4.6 g/m*3 0.8 C 0 km/h
43 22-12-2010 18:00:00 0.7 C 4.63 g/m*3 0.7 C 0 km/h
44 22-12-2010 19:00:00 0.78 C 4.7 g/m*3 0.78 C 0 km/h
45 22-12-2010 20:00:00 0.78 C 4.7 g/m*3 0.78 C 0 km/h
46 22-12-2010 21:00:00 0.8 C 4.71 g/m*3 0.8 C 0 km/h
47 22-12-2010 22:00:00 0.7 C 4.68 g/m*3 0.7 C 0 km/h
48 22-12-2010 23:00:00 0.7 C 4.68 g/m*3 0.7 C 0 km/h
49 23-12-2010 00:00:00 0.76 C 4.74 g/m*3 0.76 C 0 km/h
50 23-12-2010 01:00:00 0.7 C 4.73 g/m*3 0.7 C 0 km/h
Sensor: Nr:Datum:Temp:Abs-Feuchte:Windchill:Wind:
Aussen-T/F 51 23-12-2010 02:00:00 0.7 C 4.73 g/m*3 0.7 C 0 km/h
52 23-12-2010 03:00:00 0.7 C 4.73 g/m*3 0.7 C 0 km/h
53 23-12-2010 04:00:00 0.66 C 4.72 g/m*3 0.66 C 0 km/h
54 23-12-2010 05:00:00 0.48 C 4.66 g/m*3 0.48 C 0 km/h
55 23-12-2010 06:00:00 0.34 C 4.61 g/m*3 0.34 C 0 km/h
56 23-12-2010 07:00:00 0 C 4.51 g/m*3 0 C 0 km/h
57 23-12-2010 08:00:00 -0.32 C 4.39 g/m*3 -0.32 C 0 km/h
58 23-12-2010 09:00:00 -0.5 C 4.31 g/m*3 -0.5 C 0 km/h
59 23-12-2010 10:00:00 -0.54 C 4.27 g/m*3 -0.54 C 0 km/h
60 23-12-2010 11:00:00 -0.58 C 4.19 g/m*3 -0.58 C 0 km/h
61 23-12-2010 12:00:00 -0.68 C 4.06 g/m*3 -0.68 C 0 km/h
62 23-12-2010 13:00:00 -0.66 C 4 g/m*3 -0.66 C 0 km/h
63 23-12-2010 14:00:00 -0.62 C 3.99 g/m*3 -0.62 C 0 km/h
64 23-12-2010 15:00:00 -0.86 C 3.93 g/m*3 -0.86 C 0 km/h
65 23-12-2010 16:00:00 -0.9 C 3.96 g/m*3 -0.9 C 0 km/h
66 23-12-2010 17:00:00 -1.02 C 3.93 g/m*3 -1.02 C 0 km/h
67 23-12-2010 18:00:00 -1.14 C 3.89 g/m*3 -1.14 C 0 km/h
68 23-12-2010 19:00:00 -1.26 C 3.84 g/m*3 -1.26 C 0 km/h
69 23-12-2010 20:00:00 -1.26 C 3.84 g/m*3 -1.26 C 0 km/h
70 23-12-2010 21:00:00 -1.1 C 3.86 g/m*3 -1.1 C 0 km/h
71 23-12-2010 22:00:00 -0.94 C 3.92 g/m*3 -0.94 C 0 km/h
72 23-12-2010 23:00:00 -0.8 C 3.98 g/m*3 -0.8 C 0 km/h
73 24-12-2010 00:00:00 -0.9 C 3.91 g/m*3 -0.9 C 0 km/h
74 24-12-2010 01:00:00 -0.74 C 3.98 g/m*3 -0.74 C 0 km/h
75 24-12-2010 02:00:00 -0.5 C 4.03 g/m*3 -0.5 C 0 km/h
Sensor: Nr:Datum:Temp:Abs-Feuchte:Windchill:Wind:
Aussen-T/F 76 24-12-2010 03:00:00 -0.48 C 4.03 g/m*3 -0.48 C 0 km/h
77 24-12-2010 04:00:00 -0.5 C 4.03 g/m*3 -0.5 C 0 km/h
78 24-12-2010 05:00:00 -0.74 C 3.91 g/m*3 -0.74 C 0 km/h
79 24-12-2010 06:00:00 -0.96 C 3.79 g/m*3 -0.96 C 0 km/h
80 24-12-2010 07:00:00 -1.2 C 3.64 g/m*3 -1.2 C 0 km/h
81 24-12-2010 08:00:00 -1.48 C 3.64 g/m*3 -1.48 C 0 km/h
82 24-12-2010 09:00:00 -1.7 C 3.66 g/m*3 -1.7 C 0 km/h
83 24-12-2010 10:00:00 -1.54 C 3.68 g/m*3 -1.54 C 0 km/h
84 24-12-2010 11:00:00 -1.32 C 3.67 g/m*3 -1.32 C 0 km/h
85 24-12-2010 12:00:00 -1.34 C 3.58 g/m*3 -1.34 C 0 km/h
86 24-12-2010 13:00:00 -1.38 C 3.52 g/m*3 -1.38 C 0 km/h
87 24-12-2010 14:00:00 -1.4 C 3.52 g/m*3 -1.4 C 0 km/h
88 24-12-2010 15:00:00 -1.84 C 3.46 g/m*3 -1.84 C 0 km/h
89 24-12-2010 16:00:00 -2.42 C 3.35 g/m*3 -2.42 C 0 km/h
90 24-12-2010 17:00:00 -2.56 C 3.22 g/m*3 -2.56 C 0 km/h
91 24-12-2010 18:00:00 -2.8 C 3.23 g/m*3 -2.8 C 0 km/h
92 24-12-2010 19:00:00 -2.94 C 3.13 g/m*3 -2.94 C 0 km/h
93 24-12-2010 20:00:00 -3.02 C 3.11 g/m*3 -3.02 C 0 km/h
94 24-12-2010 21:00:00 -3.23333 C 3.06 g/m*3 -3.23 C 0 km/h
95 24-12-2010 22:00:00 -3.56 C 3.02 g/m*3 -3.56 C 0 km/h
96 24-12-2010 23:00:00 -3.74 C 2.98 g/m*3 -3.74 C 0 km/h
97 25-12-2010 00:00:00 -3.82 C 2.94 g/m*3 -3.82 C 0 km/h
98 25-12-2010 01:00:00 -3.92 C 2.88 g/m*3 -3.92 C 0 km/h
99 25-12-2010 02:00:00 -4.08 C 2.87 g/m*3 -4.08 C 0 km/h
100 25-12-2010 03:00:00 -4.16 C 2.81 g/m*3 -4.16 C 0 km/h
Sensor: Nr:Datum:Temp:Abs-Feuchte:Windchill:Wind:
Aussen-T/F 101 25-12-2010 04:00:00 -4.26 C 2.68 g/m*3 -4.26 C 0 km/h
102 25-12-2010 05:00:00 -4.46 C 2.58 g/m*3 -4.46 C 0 km/h
103 25-12-2010 06:00:00 -4.62 C 2.51 g/m*3 -4.62 C 0 km/h
104 25-12-2010 07:00:00 -4.72 C 2.45 g/m*3 -4.72 C 0 km/h
105 25-12-2010 08:00:00 -4.8 C 2.47 g/m*3 -4.8 C 0 km/h
106 25-12-2010 09:00:00 -4.82 C 2.44 g/m*3 -4.82 C 0 km/h
107 25-12-2010 10:00:00 -4.58 C 2.36 g/m*3 -4.58 C 0 km/h
108 25-12-2010 11:00:00 -4.5 C 2.18 g/m*3 -4.5 C 0 km/h
109 25-12-2010 12:00:00 -4.98 C 2.07 g/m*3 -4.98 C 0 km/h
110 25-12-2010 13:00:00 -4.72 C 2.18 g/m*3 -4.72 C 0 km/h
111 25-12-2010 14:00:00 -4.92 C 2.1 g/m*3 -4.92 C 0 km/h
112 25-12-2010 15:00:00 -5.54 C 2.09 g/m*3 -5.54 C 0 km/h
113 25-12-2010 16:00:00 -6.82 C 2.12 g/m*3 -6.82 C 0 km/h
114 25-12-2010 17:00:00 -7.52 C 2.13 g/m*3 -7.52 C 0 km/h
115 25-12-2010 18:00:00 -7.46 C 2.17 g/m*3 -7.46 C 0 km/h
116 25-12-2010 19:00:00 -7.4 C 2.17 g/m*3 -7.4 C 0 km/h
117 25-12-2010 20:00:00 -8.34 C 2.11 g/m*3 -8.34 C 0 km/h
118 25-12-2010 21:00:00 -7.4 C 2.32 g/m*3 -7.4 C 0 km/h
119 25-12-2010 22:00:00 -6.8 C 2.31 g/m*3 -6.8 C 0 km/h
120 25-12-2010 23:00:00 -6.82 C 2.18 g/m*3 -6.82 C 0 km/h
121 26-12-2010 00:00:00 -7.08 C 2.12 g/m*3 -7.08 C 0 km/h
122 26-12-2010 01:00:00 -8 C 1.99 g/m*3 -8 C 0 km/h
123 26-12-2010 02:00:00 -8.78 C 1.88 g/m*3 -8.78 C 0 km/h
124 26-12-2010 03:00:00 -9.04 C 1.82 g/m*3 -9.04 C 0 km/h
125 26-12-2010 04:00:00 -9.04 C 1.85 g/m*3 -9.04 C 0 km/h
Sensor: Nr:Datum:Temp:Abs-Feuchte:Windchill:Wind:
Aussen-T/F 126 26-12-2010 05:00:00 -8.44 C 1.94 g/m*3 -8.44 C 0 km/h
127 26-12-2010 06:00:00 -7.24 C 2.11 g/m*3 -7.24 C 0 km/h
128 26-12-2010 07:00:00 -6.34 C 2.24 g/m*3 -6.34 C 0 km/h
129 26-12-2010 08:00:00 -5.84 C 2.36 g/m*3 -5.84 C 0 km/h
130 26-12-2010 09:00:00 -4.88 C 2.6 g/m*3 -4.88 C 0 km/h
131 26-12-2010 10:00:00 -4.24 C 2.68 g/m*3 -4.24 C 0 km/h
132 26-12-2010 11:00:00 -3.52 C 2.69 g/m*3 -3.52 C 0 km/h
133 26-12-2010 12:00:00 -3.14 C 2.78 g/m*3 -3.14 C 0 km/h
134 26-12-2010 13:00:00 -2.72 C 2.85 g/m*3 -2.72 C 0 km/h
135 26-12-2010 14:00:00 -2.66 C 3 g/m*3 -2.66 C 0 km/h
136 26-12-2010 15:00:00 -2.72 C 3.13 g/m*3 -2.72 C 0 km/h
137 26-12-2010 16:00:00 -2.86 C 3.16 g/m*3 -2.86 C 0 km/h
138 26-12-2010 17:00:00 -2.82 C 3.17 g/m*3 -2.82 C 0 km/h
139 26-12-2010 18:00:00 -2.9 C 3.17 g/m*3 -2.9 C 0 km/h
140 26-12-2010 19:00:00 -2.72 C 3.18 g/m*3 -2.72 C 0 km/h
141 26-12-2010 20:00:00 -3.04 C 3.16 g/m*3 -3.04 C 0 km/h
142 26-12-2010 21:00:00 -3.3 C 3.08 g/m*3 -3.3 C 0 km/h
143 26-12-2010 22:00:00 -3.04 C 3.13 g/m*3 -3.04 C 0 km/h
144 26-12-2010 23:00:00 -2.72 C 3.18 g/m*3 -2.72 C 0 km/h
145 27-12-2010 00:00:00 -2.64 C 3.22 g/m*3 -2.64 C 0 km/h
146 27-12-2010 01:00:00 -1.92 C 3.31 g/m*3 -1.92 C 0 km/h
147 27-12-2010 02:00:00 -1.6 C 3.35 g/m*3 -1.6 C 0 km/h
148 27-12-2010 03:00:00 -1.38 C 3.41 g/m*3 -1.38 C 0 km/h
149 27-12-2010 04:00:00 -1.3 C 3.36 g/m*3 -1.3 C 0 km/h
150 27-12-2010 05:00:00 -1.32 C 3.37 g/m*3 -1.32 C 0 km/h
Sensor: Nr:Datum:Temp:Abs-Feuchte:Windchill:Wind:
Aussen-T/F 151 27-12-2010 06:00:00 -1.44 C 3.38 g/m*3 -1.44 C 0 km/h
152 27-12-2010 07:00:00 -1.62 C 3.33 g/m*3 -1.62 C 0 km/h
153 27-12-2010 08:00:00 -1.86 C 3.29 g/m*3 -1.86 C 0 km/h
154 27-12-2010 09:00:00 -1.78 C 3.24 g/m*3 -1.78 C 0 km/h
155 27-12-2010 10:00:00 -1.42 C 3.27 g/m*3 -1.42 C 0 km/h
156 27-12-2010 11:00:00 -1.16 C 3.26 g/m*3 -1.16 C 0 km/h
157 27-12-2010 12:00:00 -1.02 C 3.22 g/m*3 -1.02 C 0 km/h
158 27-12-2010 13:00:00 -0.88 C 3.29 g/m*3 -0.88 C 0 km/h
159 27-12-2010 14:00:00 -1.04 C 3.27 g/m*3 -1.04 C 0 km/h
160 27-12-2010 15:00:00 -1.3 C 3.33 g/m*3 -1.3 C 0 km/h
161 27-12-2010 16:00:00 -2.3 C 3.25 g/m*3 -2.3 C 0 km/h
162 27-12-2010 17:00:00 -3.16 C 3.25 g/m*3 -3.16 C 0 km/h
163 27-12-2010 18:00:00 -3.18 C 3.34 g/m*3 -3.18 C 0 km/h
164 27-12-2010 19:00:00 -3.74 C 3.21 g/m*3 -3.74 C 0 km/h
165 27-12-2010 20:00:00 -4.3 C 3.12 g/m*3 -4.3 C 0 km/h
166 27-12-2010 21:00:00 -4.4 C 3.1 g/m*3 -4.4 C 0 km/h
167 27-12-2010 22:00:00 -4.14 C 3.16 g/m*3 -4.14 C 0 km/h
168 27-12-2010 23:00:00 -4.34 C 3.11 g/m*3 -4.34 C 0 km/h
169 28-12-2010 00:00:00 -4.46 C 3.08 g/m*3 -4.46 C 0 km/h
170 28-12-2010 01:00:00 -4.3 C 3.12 g/m*3 -4.3 C 0 km/h
171 28-12-2010 02:00:00 -4.16 C 3.15 g/m*3 -4.16 C 0 km/h
172 28-12-2010 03:00:00 -4.36 C 3.08 g/m*3 -4.36 C 0 km/h
173 28-12-2010 04:00:00 -4.16 C 3.15 g/m*3 -4.16 C 0 km/h
174 28-12-2010 05:00:00 -3.78 C 3.23 g/m*3 -3.78 C 0 km/h
175 28-12-2010 06:00:00 -3.74 C 3.24 g/m*3 -3.74 C 0 km/h
Sensor: Nr:Datum:Temp:Abs-Feuchte:Windchill:Wind:
Aussen-T/F 176 28-12-2010 07:00:00 -3.72 C 3.22 g/m*3 -3.72 C 0 km/h
177 28-12-2010 08:00:00 -3.56 C 3.25 g/m*3 -3.56 C 0 km/h
178 28-12-2010 09:00:00 -2.68 C 3.44 g/m*3 -2.68 C 0 km/h
179 28-12-2010 10:00:00 -1.12 C 3.61 g/m*3 -1.12 C 0 km/h
180 28-12-2010 11:00:00 -0.54 C 3.46 g/m*3 -0.54 C 0 km/h
181 28-12-2010 12:00:00 0.3 C 3.31 g/m*3 0.3 C 0 km/h
182 28-12-2010 13:00:00 0.36 C 3.32 g/m*3 0.36 C 0 km/h
183 28-12-2010 14:00:00 0 C 3.33 g/m*3 0 C 0 km/h
184 28-12-2010 15:00:00 -0.54 C 3.42 g/m*3 -0.54 C 0 km/h
185 28-12-2010 16:00:00 -0.68 C 3.39 g/m*3 -0.68 C 0 km/h
186 28-12-2010 17:00:00 -0.7 C 3.42 g/m*3 -0.7 C 0 km/h
187 28-12-2010 18:00:00 -0.88 C 3.38 g/m*3 -0.88 C 0 km/h
188 28-12-2010 19:00:00 -1.2 C 3.45 g/m*3 -1.2 C 0 km/h
189 28-12-2010 20:00:00 -1.4 C 3.43 g/m*3 -1.4 C 0 km/h
190 28-12-2010 21:00:00 -1.86 C 3.4 g/m*3 -1.86 C 0 km/h
191 28-12-2010 22:00:00 -1.275 C 3.59 g/m*3 -1.27 C 0 km/h
192 28-12-2010 23:00:00 -1.28 C 3.58 g/m*3 -1.28 C 0 km/h
193 29-12-2010 00:00:00 -1.32 C 3.56 g/m*3 -1.32 C 0 km/h
194 29-12-2010 01:00:00 -1.3 C 3.62 g/m*3 -1.3 C 0 km/h
195 29-12-2010 02:00:00 -1.3 C 3.64 g/m*3 -1.3 C 0 km/h
196 29-12-2010 03:00:00 -1.22 C 3.68 g/m*3 -1.22 C 0 km/h
197 29-12-2010 04:00:00 -1.28 C 3.66 g/m*3 -1.28 C 0 km/h
198 29-12-2010 05:00:00 -1.3 C 3.67 g/m*3 -1.3 C 0 km/h
199 29-12-2010 06:00:00 -1.2 C 3.73 g/m*3 -1.2 C 0 km/h
200 29-12-2010 07:00:00 -1.1 C 3.79 g/m*3 -1.1 C 0 km/h
Sensor: Nr:Datum:Temp:Abs-Feuchte:Windchill:Wind:
Aussen-T/F 201 29-12-2010 08:00:00 -1.1 C 3.83 g/m*3 -1.1 C 0 km/h
202 29-12-2010 09:00:00 -0.74 C 3.88 g/m*3 -0.74 C 0 km/h
203 29-12-2010 10:00:00 0.14 C 3.75 g/m*3 0.14 C 0 km/h
204 29-12-2010 11:00:00 0.58 C 3.6 g/m*3 0.58 C 0 km/h
205 29-12-2010 12:00:00 0.88 C 3.58 g/m*3 0.88 C 0 km/h
206 29-12-2010 13:00:00 1.34 C 3.61 g/m*3 1.34 C 0 km/h
207 29-12-2010 14:00:00 1.76 C 3.66 g/m*3 1.76 C 0 km/h
208 29-12-2010 15:00:00 1.18 C 3.73 g/m*3 1.18 C 0 km/h
209 29-12-2010 16:00:00 0.62 C 3.85 g/m*3 0.62 C 0 km/h
210 29-12-2010 17:00:00 0.28 C 3.85 g/m*3 0.28 C 0 km/h
211 29-12-2010 18:00:00 0.14 C 3.89 g/m*3 0.14 C 0 km/h
212 29-12-2010 19:00:00 0.06 C 3.97 g/m*3 0.06 C 0 km/h
213 29-12-2010 20:00:00 -0.04 C 3.96 g/m*3 -0.04 C 0 km/h
214 29-12-2010 21:00:00 -0.18 C 3.92 g/m*3 -0.18 C 0 km/h
215 29-12-2010 22:00:00 -0.32 C 3.84 g/m*3 -0.32 C 0 km/h
216 29-12-2010 23:00:00 -0.7 C 3.79 g/m*3 -0.7 C 0 km/h
217 30-12-2010 00:00:00 -0.925 C 3.79 g/m*3 -0.93 C 0 km/h
218 30-12-2010 01:00:00 -1.32 C 3.7 g/m*3 -1.32 C 0 km/h
219 30-12-2010 02:00:00 -1.46 C 3.75 g/m*3 -1.46 C 0 km/h
220 30-12-2010 03:00:00 -1.14 C 3.85 g/m*3 -1.14 C 0 km/h
221 30-12-2010 04:00:00 -1.14 C 3.76 g/m*3 -1.14 C 0 km/h
222 30-12-2010 05:00:00 -2.82 C 3.25 g/m*3 -2.82 C 0 km/h
223 30-12-2010 06:00:00 -1.24 C 3.53 g/m*3 -1.24 C 0 km/h
224 30-12-2010 07:00:00 -1.34 C 3.44 g/m*3 -1.34 C 0 km/h
225 30-12-2010 08:00:00 -1.4 C 3.45 g/m*3 -1.4 C 0 km/h
Sensor: Nr:Datum:Temp:Abs-Feuchte:Windchill:Wind:
Aussen-T/F 226 30-12-2010 09:00:00 -1.1 C 3.47 g/m*3 -1.1 C 0 km/h
227 30-12-2010 10:00:00 -0.45 C 3.46 g/m*3 -0.45 C 0 km/h
228 30-12-2010 11:00:00 0.08 C 3.53 g/m*3 0.08 C 0 km/h
229 30-12-2010 12:00:00 0.6 C 3.59 g/m*3 0.6 C 0 km/h
230 30-12-2010 13:00:00 1.2 C 3.59 g/m*3 1.2 C 0 km/h
231 30-12-2010 14:00:00 1.32 C 3.61 g/m*3 1.32 C 0 km/h
232 30-12-2010 15:00:00 0.98 C 3.67 g/m*3 0.98 C 0 km/h
233 30-12-2010 16:00:00 0.3 C 3.73 g/m*3 0.3 C 0 km/h
234 30-12-2010 17:00:00 0.04 C 3.74 g/m*3 0.04 C 0 km/h
235 30-12-2010 18:00:00 -0.3 C 3.68 g/m*3 -0.3 C 0 km/h
236 30-12-2010 19:00:00 -0.44 C 3.75 g/m*3 -0.44 C 0 km/h
237 30-12-2010 20:00:00 -0.48 C 3.71 g/m*3 -0.48 C 0 km/h
238 30-12-2010 21:00:00 -0.6 C 3.63 g/m*3 -0.6 C 0 km/h
239 30-12-2010 22:00:00 -0.78 C 3.59 g/m*3 -0.78 C 0 km/h
240 30-12-2010 23:00:00 -0.96 C 3.51 g/m*3 -0.96 C 0 km/h
241 31-12-2010 00:00:00 -1.1 C 3.49 g/m*3 -1.1 C 0 km/h
242 31-12-2010 01:00:00 -1.14 C 3.54 g/m*3 -1.14 C 0 km/h
243 31-12-2010 02:00:00 -1.34 C 3.49 g/m*3 -1.34 C 0 km/h
244 31-12-2010 03:00:00 -1.76 C 3.4 g/m*3 -1.76 C 0 km/h
245 31-12-2010 04:00:00 -1.98 C 3.38 g/m*3 -1.98 C 0 km/h
246 31-12-2010 05:00:00 -2.12 C 3.34 g/m*3 -2.12 C 0 km/h
247 31-12-2010 06:00:00 -2.26 C 3.29 g/m*3 -2.26 C 0 km/h
248 31-12-2010 07:00:00 -2.12 C 3.36 g/m*3 -2.12 C 0 km/h
249 31-12-2010 08:00:00 -2.12 C 3.39 g/m*3 -2.12 C 0 km/h
250 31-12-2010 09:00:00 -2.18 C 3.35 g/m*3 -2.18 C 0 km/h
Sensor: Nr:Datum:Temp:Abs-Feuchte:Windchill:Wind:
Aussen-T/F 251 31-12-2010 10:00:00 -1.9 C 3.35 g/m*3 -1.9 C 0 km/h
252 31-12-2010 11:00:00 -1.22 C 3.38 g/m*3 -1.22 C 0 km/h
253 31-12-2010 12:00:00 -0.92 C 3.41 g/m*3 -0.92 C 0 km/h
254 31-12-2010 13:00:00 -0.18 C 3.46 g/m*3 -0.18 C 0 km/h
255 31-12-2010 14:00:00 0.24 C 3.37 g/m*3 0.24 C 0 km/h
256 31-12-2010 15:00:00 -0.34 C 3.43 g/m*3 -0.34 C 0 km/h
257 31-12-2010 16:00:00 -0.56 C 3.52 g/m*3 -0.56 C 0 km/h
258 31-12-2010 17:00:00 -0.6 C 3.63 g/m*3 -0.6 C 0 km/h
259 31-12-2010 18:00:00 -0.54 C 3.76 g/m*3 -0.54 C 0 km/h
260 31-12-2010 19:00:00 -0.6 C 3.82 g/m*3 -0.6 C 0 km/h
261 31-12-2010 20:00:00 -0.64 C 3.94 g/m*3 -0.64 C 0 km/h
262 31-12-2010 21:00:00 -0.58 C 4.02 g/m*3 -0.58 C 0 km/h
263 31-12-2010 22:00:00 -0.38 C 4.11 g/m*3 -0.38 C 0 km/h
264 31-12-2010 23:00:00 -0.325 C 4.12 g/m*3 -0.33 C 0 km/h
265 01-01-2011 00:00:00 -0.32 C 4.12 g/m*3 -0.32 C 0 km/h
266 01-01-2011 01:00:00 -0.28 C 4.18 g/m*3 -0.28 C 0 km/h
267 01-01-2011 02:00:00 -0.14 C 4.22 g/m*3 -0.14 C 0 km/h
268 01-01-2011 03:00:00 -0.13333 C 4.22 g/m*3 -0.13 C 0 km/h
269 01-01-2011 04:00:00 -0.2 C 4.21 g/m*3 -0.2 C 0 km/h
270 01-01-2011 05:00:00 -0.02 C 4.3 g/m*3 -0.02 C 0 km/h
271 01-01-2011 06:00:00 0.36 C 4.29 g/m*3 0.36 C 0 km/h
272 01-01-2011 07:00:00 0.5 C 4.25 g/m*3 0.5 C 0 km/h
273 01-01-2011 08:00:00 0.82 C 4.3 g/m*3 0.82 C 0 km/h
274 01-01-2011 09:00:00 1.08 C 4.38 g/m*3 1.08 C 0 km/h
275 01-01-2011 10:00:00 1.36 C 4.59 g/m*3 1.36 C 0 km/h
Sensor: Nr:Datum:Temp:Abs-Feuchte:Windchill:Wind:
Aussen-T/F 276 01-01-2011 11:00:00 1.94 C 4.68 g/m*3 1.94 C 0 km/h
277 01-01-2011 12:00:00 2.44 C 4.63 g/m*3 2.44 C 0 km/h
278 01-01-2011 13:00:00 2.92 C 4.62 g/m*3 2.92 C 0 km/h
279 01-01-2011 14:00:00 2.54 C 4.63 g/m*3 2.54 C 0 km/h
280 01-01-2011 15:00:00 2.02 C 4.64 g/m*3 2.02 C 0 km/h
281 01-01-2011 16:00:00 1.58 C 4.73 g/m*3 1.58 C 0 km/h
282 01-01-2011 17:00:00 1.34 C 4.75 g/m*3 1.34 C 0 km/h
283 01-01-2011 18:00:00 1.46 C 4.87 g/m*3 1.46 C 0 km/h
284 01-01-2011 19:00:00 1.96 C 5.05 g/m*3 1.96 C 0 km/h
285 01-01-2011 20:00:00 1.72 C 4.93 g/m*3 1.72 C 0 km/h
286 01-01-2011 21:00:00 1.18 C 4.73 g/m*3 1.18 C 0 km/h
287 01-01-2011 22:00:00 1.06 C 4.73 g/m*3 1.06 C 0 km/h
288 01-01-2011 23:00:00 0.3 C 4.5 g/m*3 0.3 C 0 km/h
289 02-01-2011 00:00:00 0.18 C 4.5 g/m*3 0.18 C 0 km/h
290 02-01-2011 01:00:00 0.32 C 4.57 g/m*3 0.32 C 0 km/h
291 02-01-2011 02:00:00 0.36 C 4.61 g/m*3 0.36 C 0 km/h
292 02-01-2011 03:00:00 0.44 C 4.64 g/m*3 0.44 C 0 km/h
293 02-01-2011 04:00:00 0.5 C 4.65 g/m*3 0.5 C 0 km/h
294 02-01-2011 05:00:00 0.28 C 4.54 g/m*3 0.28 C 0 km/h
295 02-01-2011 06:00:00 0.3 C 4.54 g/m*3 0.3 C 0 km/h
296 02-01-2011 07:00:00 0.3 C 4.47 g/m*3 0.3 C 0 km/h
297 02-01-2011 08:00:00 0.12 C 4.34 g/m*3 0.12 C 0 km/h
298 02-01-2011 09:00:00 0.54 C 4.48 g/m*3 0.54 C 0 km/h
299 02-01-2011 10:00:00 1.42 C 4.47 g/m*3 1.42 C 0 km/h
300 02-01-2011 11:00:00 1.8 C 4.16 g/m*3 1.8 C 0 km/h
Sensor: Nr:Datum:Temp:Abs-Feuchte:Windchill:Wind:
Aussen-T/F 301 02-01-2011 12:00:00 2.06 C 4.16 g/m*3 2.06 C 0 km/h
302 02-01-2011 13:00:00 2.5 C 4.14 g/m*3 2.5 C 0 km/h
303 02-01-2011 14:00:00 2.22 C 4.07 g/m*3 2.22 C 0 km/h
304 02-01-2011 15:00:00 1.7 C 4.03 g/m*3 1.7 C 0 km/h
305 02-01-2011 16:00:00 1.44 C 4.19 g/m*3 1.44 C 0 km/h
306 02-01-2011 17:00:00 0.66 C 4.36 g/m*3 0.66 C 0 km/h
307 02-01-2011 18:00:00 0.62 C 4.45 g/m*3 0.62 C 0 km/h
308 02-01-2011 19:00:00 0.58 C 4.44 g/m*3 0.58 C 0 km/h
309 02-01-2011 20:00:00 0.42 C 4.36 g/m*3 0.42 C 0 km/h
310 02-01-2011 21:00:00 0.18 C 4.32 g/m*3 0.18 C 0 km/h
311 02-01-2011 22:00:00 0.2 C 4.29 g/m*3 0.2 C 0 km/h
312 02-01-2011 23:00:00 0.12 C 4.3 g/m*3 0.12 C 0 km/h
313 03-01-2011 00:00:00 0.12 C 4.34 g/m*3 0.12 C 0 km/h
314 03-01-2011 01:00:00 0.06 C 4.28 g/m*3 0.06 C 0 km/h
315 03-01-2011 02:00:00 -0.16 C 4.22 g/m*3 -0.16 C 0 km/h
316 03-01-2011 03:00:00 -0.3 C 4.12 g/m*3 -0.3 C 0 km/h
317 03-01-2011 04:00:00 -0.88 C 3.85 g/m*3 -0.88 C 0 km/h
318 03-01-2011 05:00:00 -1.04 C 3.84 g/m*3 -1.04 C 0 km/h
319 03-01-2011 06:00:00 -1.12 C 3.88 g/m*3 -1.12 C 0 km/h
320 03-01-2011 07:00:00 -1.08 C 3.99 g/m*3 -1.08 C 0 km/h
321 03-01-2011 08:00:00 -1.3 C 3.9 g/m*3 -1.3 C 0 km/h
322 03-01-2011 09:00:00 -1.22 C 3.93 g/m*3 -1.22 C 0 km/h
323 03-01-2011 10:00:00 -1.02 C 3.86 g/m*3 -1.02 C 0 km/h
324 03-01-2011 11:00:00 -0.3 C 3.73 g/m*3 -0.3 C 0 km/h
325 03-01-2011 12:00:00 0.26 C 3.73 g/m*3 0.26 C 0 km/h
Sensor: Nr:Datum:Temp:Abs-Feuchte:Windchill:Wind:
Aussen-T/F 326 03-01-2011 13:00:00 0.92 C 3.81 g/m*3 0.92 C 0 km/h
327 03-01-2011 14:00:00 0.86 C 3.86 g/m*3 0.86 C 0 km/h
328 03-01-2011 15:00:00 -0.08 C 3.74 g/m*3 -0.08 C 0 km/h
329 03-01-2011 16:00:00 -1.54 C 3.65 g/m*3 -1.54 C 0 km/h
330 03-01-2011 17:00:00 -2.46 C 3.53 g/m*3 -2.46 C 0 km/h
331 03-01-2011 18:00:00 -1.3 C 3.93 g/m*3 -1.3 C 0 km/h
332 03-01-2011 19:00:00 -1.22 C 3.98 g/m*3 -1.22 C 0 km/h
333 03-01-2011 20:00:00 -2 C 3.76 g/m*3 -2 C 0 km/h
334 03-01-2011 21:00:00 -2.5 C 3.63 g/m*3 -2.5 C 0 km/h
335 03-01-2011 22:00:00 -1.6 C 3.9 g/m*3 -1.6 C 0 km/h
336 03-01-2011 23:00:00 -3 C 3.53 g/m*3 -3 C 0 km/h
337 04-01-2011 00:00:00 -3.64 C 3.38 g/m*3 -3.64 C 0 km/h
338 04-01-2011 01:00:00 -3.94 C 3.29 g/m*3 -3.94 C 0 km/h
339 04-01-2011 02:00:00 -3.3 C 3.46 g/m*3 -3.3 C 0 km/h
340 04-01-2011 03:00:00 -3.18 C 3.47 g/m*3 -3.18 C 0 km/h
341 04-01-2011 04:00:00 -3.44 C 3.4 g/m*3 -3.44 C 0 km/h
342 04-01-2011 05:00:00 -3.74 C 3.3 g/m*3 -3.74 C 0 km/h
343 04-01-2011 06:00:00 -3.84 C 3.27 g/m*3 -3.84 C 0 km/h
344 04-01-2011 07:00:00 -2.72 C 3.57 g/m*3 -2.72 C 0 km/h
345 04-01-2011 08:00:00 -2.14 C 3.76 g/m*3 -2.14 C 0 km/h
346 04-01-2011 09:00:00 -1.88 C 3.83 g/m*3 -1.88 C 0 km/h
347 04-01-2011 10:00:00 -1.02 C 4.06 g/m*3 -1.02 C 0 km/h
348 04-01-2011 11:00:00 -0.42 C 4.05 g/m*3 -0.42 C 0 km/h
349 04-01-2011 12:00:00 -0.26 C 3.46 g/m*3 -0.26 C 0 km/h
350 04-01-2011 13:00:00 0.1 C 3.4 g/m*3 0.1 C 0 km/h
Sensor: Nr:Datum:Temp:Abs-Feuchte:Windchill:Wind:
Aussen-T/F 351 04-01-2011 14:00:00 0.06 C 3.33 g/m*3 0.06 C 0 km/h
352 04-01-2011 15:00:00 -0.92 C 3.25 g/m*3 -0.92 C 0 km/h
353 04-01-2011 16:00:00 -1.18 C 3.26 g/m*3 -1.18 C 0 km/h
354 04-01-2011 17:00:00 -2 C 3.21 g/m*3 -2 C 0 km/h
355 04-01-2011 18:00:00 -2.22 C 3.18 g/m*3 -2.22 C 0 km/h
356 04-01-2011 19:00:00 -3.56 C 2.94 g/m*3 -3.56 C 0 km/h
357 04-01-2011 20:00:00 -4.2 C 2.89 g/m*3 -4.2 C 0 km/h
358 04-01-2011 21:00:00 -3.72 C 2.98 g/m*3 -3.72 C 0 km/h
359 04-01-2011 22:00:00 -2.82 C 2.86 g/m*3 -2.82 C 0 km/h
360 04-01-2011 23:00:00 -2.82 C 2.83 g/m*3 -2.82 C 0 km/h
361 05-01-2011 00:00:00 -2.88 C 2.88 g/m*3 -2.88 C 0 km/h
362 05-01-2011 01:00:00 -2.98 C 2.74 g/m*3 -2.98 C 0 km/h
363 05-01-2011 02:00:00 -2.92 C 2.75 g/m*3 -2.92 C 0 km/h
364 05-01-2011 03:00:00 -2.96 C 2.76 g/m*3 -2.96 C 0 km/h
365 05-01-2011 04:00:00 -3.56 C 2.54 g/m*3 -3.56 C 0 km/h
366 05-01-2011 05:00:00 -4.06 C 2.5 g/m*3 -4.06 C 0 km/h
367 05-01-2011 06:00:00 -4.88 C 2.36 g/m*3 -4.88 C 0 km/h
368 05-01-2011 07:00:00 -6.04 C 2.24 g/m*3 -6.04 C 0 km/h
369 05-01-2011 08:00:00 -7.46 C 2.16 g/m*3 -7.46 C 0 km/h
370 05-01-2011 09:00:00 -6.64 C 2.35 g/m*3 -6.64 C 0 km/h
371 05-01-2011 10:00:00 -4.26 C 2.44 g/m*3 -4.26 C 0 km/h
372 05-01-2011 11:00:00 -3.2 C 2.38 g/m*3 -3.2 C 0 km/h
373 05-01-2011 12:00:00 -3.68 C 2.34 g/m*3 -3.68 C 0 km/h
374 05-01-2011 13:00:00 -3.76 C 2.43 g/m*3 -3.76 C 0 km/h
375 05-01-2011 14:00:00 -3.38 C 2.52 g/m*3 -3.38 C 0 km/h
Sensor: Nr:Datum:Temp:Abs-Feuchte:Windchill:Wind:
Aussen-T/F 376 05-01-2011 15:00:00 -3.74 C 2.56 g/m*3 -3.74 C 0 km/h
377 05-01-2011 16:00:00 -4.44 C 2.56 g/m*3 -4.44 C 0 km/h
378 05-01-2011 17:00:00 -5.7 C 2.52 g/m*3 -5.7 C 0 km/h
379 05-01-2011 18:00:00 -5.7 C 2.6 g/m*3 -5.7 C 0 km/h
380 05-01-2011 19:00:00 -3.86 C 2.93 g/m*3 -3.86 C 0 km/h
381 05-01-2011 20:00:00 -2.66 C 3.07 g/m*3 -2.66 C 0 km/h
382 05-01-2011 21:00:00 -1.68 C 3.21 g/m*3 -1.68 C 0 km/h
383 05-01-2011 22:00:00 -1.06 C 3.5 g/m*3 -1.06 C 0 km/h
384 05-01-2011 23:00:00 -0.56 C 3.76 g/m*3 -0.56 C 0 km/h
385 06-01-2011 00:00:00 -0.58 C 3.83 g/m*3 -0.58 C 0 km/h
386 06-01-2011 01:00:00 -0.22 C 3.97 g/m*3 -0.22 C 0 km/h
387 06-01-2011 02:00:00 0.3 C 4.29 g/m*3 0.3 C 0 km/h
388 06-01-2011 03:00:00 0.64 C 4.54 g/m*3 0.64 C 0 km/h
389 06-01-2011 04:00:00 0.88 C 4.68 g/m*3 0.88 C 0 km/h
390 06-01-2011 05:00:00 1.04 C 4.74 g/m*3 1.04 C 0 km/h
391 06-01-2011 06:00:00 1.26 C 4.86 g/m*3 1.26 C 0 km/h
392 06-01-2011 07:00:00 1.38 C 4.9 g/m*3 1.38 C 0 km/h
393 06-01-2011 08:00:00 1.54 C 4.97 g/m*3 1.54 C 0 km/h
394 06-01-2011 09:00:00 2.54 C 5.3 g/m*3 2.54 C 0 km/h
395 06-01-2011 10:00:00 4.5 C 6.03 g/m*3 4.5 C 0 km/h
396 06-01-2011 11:00:00 6.08 C 6.27 g/m*3 6.08 C 0 km/h
397 06-01-2011 12:00:00 5.34 C 5.8 g/m*3 5.34 C 0 km/h
398 06-01-2011 13:00:00 4.5 C 5.69 g/m*3 4.5 C 0 km/h
399 06-01-2011 14:00:00 4.12 C 5.59 g/m*3 4.12 C 0 km/h
400 06-01-2011 15:00:00 3.94 C 5.62 g/m*3 3.94 C 0 km/h
Sensor: Nr:Datum:Temp:Abs-Feuchte:Windchill:Wind:
Aussen-T/F 401 06-01-2011 16:00:00 3.92 C 5.65 g/m*3 3.92 C 0 km/h
402 06-01-2011 17:00:00 4.14 C 5.79 g/m*3 4.14 C 0 km/h
403 06-01-2011 18:00:00 4.6 C 6.02 g/m*3 4.6 C 0 km/h
404 06-01-2011 19:00:00 5.02 C 6.23 g/m*3 5.02 C 0 km/h
405 06-01-2011 20:00:00 7.36 C 7.14 g/m*3 7.36 C 0 km/h
406 06-01-2011 21:00:00 8.56 C 7.35 g/m*3 8.56 C 0 km/h
407 06-01-2011 22:00:00 9.5 C 7.14 g/m*3 9.5 C 0 km/h
408 06-01-2011 23:00:00 9.08 C 7 g/m*3 9.08 C 0 km/h
409 07-01-2011 00:00:00 7.38 C 6.64 g/m*3 7.38 C 0 km/h
410 07-01-2011 01:00:00 6.64 C 6.66 g/m*3 6.64 C 0 km/h
411 07-01-2011 02:00:00 5.82 C 6.46 g/m*3 5.82 C 0 km/h
412 07-01-2011 03:00:00 5.62 C 6.44 g/m*3 5.62 C 0 km/h
413 07-01-2011 04:00:00 5.36 C 6.33 g/m*3 5.36 C 0 km/h
414 07-01-2011 05:00:00 5.28 C 6.34 g/m*3 5.28 C 0 km/h
415 07-01-2011 06:00:00 4.9 C 6.18 g/m*3 4.9 C 0 km/h
416 07-01-2011 07:00:00 5.04 C 6.27 g/m*3 5.04 C 0 km/h
417 07-01-2011 08:00:00 4.88 C 6.2 g/m*3 4.88 C 0 km/h
418 07-01-2011 09:00:00 4.9 C 6.21 g/m*3 4.9 C 0 km/h
419 07-01-2011 10:00:00 5.5 C 6.43 g/m*3 5.5 C 0 km/h
420 07-01-2011 11:00:00 6.76 C 6.94 g/m*3 6.76 C 0 km/h
421 07-01-2011 12:00:00 7.28 C 7.12 g/m*3 7.28 C 0 km/h
422 07-01-2011 13:00:00 7.38 C 7.12 g/m*3 7.38 C 0 km/h
423 07-01-2011 14:00:00 7.42 C 7.13 g/m*3 7.42 C 0 km/h
424 07-01-2011 15:00:00 7.18 C 7.06 g/m*3 7.18 C 0 km/h
425 07-01-2011 16:00:00 7.06 C 7.02 g/m*3 7.06 C 0 km/h
Sensor: Nr:Datum:Temp:Abs-Feuchte:Windchill:Wind:
Aussen-T/F 426 07-01-2011 17:00:00 7.52 C 7.29 g/m*3 7.52 C 0 km/h
427 07-01-2011 18:00:00 9.32 C 8.08 g/m*3 9.32 C 0 km/h
428 07-01-2011 19:00:00 9.44 C 7.83 g/m*3 9.44 C 0 km/h
429 07-01-2011 20:00:00 8.9 C 7.78 g/m*3 8.9 C 0 km/h
430 07-01-2011 21:00:00 9 C 7.86 g/m*3 9 C 0 km/h
431 07-01-2011 22:00:00 8.7 C 7.66 g/m*3 8.7 C 0 km/h
432 07-01-2011 23:00:00 8.76 C 7.71 g/m*3 8.76 C 0 km/h
433 08-01-2011 00:00:00 8.64 C 7.5 g/m*3 8.64 C 0 km/h
434 08-01-2011 01:00:00 7.46 C 7.09 g/m*3 7.46 C 0 km/h
435 08-01-2011 02:00:00 6.72 C 6.89 g/m*3 6.72 C 0 km/h
436 08-01-2011 03:00:00 7.92 C 7.5 g/m*3 7.92 C 0 km/h
437 08-01-2011 04:00:00 7.88 C 7.51 g/m*3 7.88 C 0 km/h
438 08-01-2011 05:00:00 7.94 C 7.56 g/m*3 7.94 C 0 km/h
439 08-01-2011 06:00:00 7.98 C 7.63 g/m*3 7.98 C 0 km/h
440 08-01-2011 07:00:00 8.16 C 7.7 g/m*3 8.16 C 0 km/h
441 08-01-2011 08:00:00 8.34 C 7.81 g/m*3 8.34 C 0 km/h
442 08-01-2011 09:00:00 8.7 C 7.94 g/m*3 8.7 C 0 km/h
443 08-01-2011 10:00:00 7.78 C 7.48 g/m*3 7.78 C 0 km/h
444 08-01-2011 11:00:00 10.2 C 7.88 g/m*3 10.2 C 0 km/h
445 08-01-2011 12:00:00 13.1 C 6.6 g/m*3 13.1 C 0 km/h
446 08-01-2011 13:00:00 14.18 C 6.07 g/m*3 14.18 C 0 km/h
447 08-01-2011 14:00:00 14.4 C 5.86 g/m*3 14.4 C 0 km/h
448 08-01-2011 15:00:00 14.12 C 5.86 g/m*3 14.12 C 0 km/h
449 08-01-2011 16:00:00 13.6 C 5.86 g/m*3 13.6 C 0 km/h
450 08-01-2011 17:00:00 13.28 C 5.91 g/m*3 13.28 C 0 km/h
Sensor: Nr:Datum:Temp:Abs-Feuchte:Windchill:Wind:
Aussen-T/F 451 08-01-2011 18:00:00 13.44 C 5.87 g/m*3 13.44 C 0 km/h
452 08-01-2011 19:00:00 13.16 C 5.93 g/m*3 13.16 C 0 km/h
453 08-01-2011 20:00:00 12.32 C 6.35 g/m*3 12.32 C 0 km/h
454 08-01-2011 21:00:00 12.04 C 6.6 g/m*3 12.04 C 0 km/h
455 08-01-2011 22:00:00 11.94 C 6.56 g/m*3 11.94 C 0 km/h
456 08-01-2011 23:00:00 10.32 C 7.13 g/m*3 10.32 C 0 km/h
457 09-01-2011 00:00:00 9.64 C 7.66 g/m*3 9.64 C 0 km/h
458 09-01-2011 01:00:00 9.62 C 7.98 g/m*3 9.62 C 0 km/h
459 09-01-2011 02:00:00 9.78 C 7.93 g/m*3 9.78 C 0 km/h
460 09-01-2011 03:00:00 9.32 C 7.77 g/m*3 9.32 C 0 km/h
461 09-01-2011 04:00:00 10.92 C 7.59 g/m*3 10.92 C 0 km/h
462 09-01-2011 05:00:00 11.08 C 7.1 g/m*3 11.08 C 0 km/h
463 09-01-2011 06:00:00 7.3 C 6.54 g/m*3 7.3 C 0 km/h
464 09-01-2011 07:00:00 6.12 C 6.39 g/m*3 6.12 C 0 km/h
465 09-01-2011 08:00:00 5.16 C 6.04 g/m*3 5.16 C 0 km/h
466 09-01-2011 09:00:00 3.98 C 5.5 g/m*3 3.98 C 0 km/h
467 09-01-2011 10:00:00 3.02 C 5.18 g/m*3 3.02 C 0 km/h
468 09-01-2011 11:00:00 4.1 C 5.47 g/m*3 4.1 C 0 km/h
469 09-01-2011 12:00:00 4.56 C 5.39 g/m*3 4.56 C 0 km/h
470 09-01-2011 13:00:00 5.08 C 5.33 g/m*3 5.08 C 0 km/h
471 09-01-2011 14:00:00 5.24 C 5.26 g/m*3 5.24 C 0 km/h
472 09-01-2011 15:00:00 4.58 C 5.43 g/m*3 4.58 C 0 km/h
473 09-01-2011 16:00:00 3.26 C 5.29 g/m*3 3.26 C 0 km/h
474 09-01-2011 17:00:00 2.78 C 5.24 g/m*3 2.78 C 0 km/h
475 09-01-2011 18:00:00 1.76 C 4.96 g/m*3 1.76 C 0 km/h
Sensor: Nr:Datum:Temp:Abs-Feuchte:Windchill:Wind:
Aussen-T/F 476 09-01-2011 19:00:00 1.8 C 5.04 g/m*3 1.8 C 0 km/h
477 09-01-2011 20:00:00 1.24 C 4.84 g/m*3 1.24 C 0 km/h
478 09-01-2011 21:00:00 0.64 C 4.68 g/m*3 0.64 C 0 km/h
479 09-01-2011 22:00:00 0.075 C 4.49 g/m*3 0.08 C 0 km/h
480 09-01-2011 23:00:00 0.02 C 4.51 g/m*3 0.02 C 0 km/h
481 10-01-2011 00:00:00 0.16 C 4.56 g/m*3 0.16 C 0 km/h
482 10-01-2011 01:00:00 0.28 C 4.61 g/m*3 0.28 C 0 km/h
483 10-01-2011 02:00:00 0.02 C 4.55 g/m*3 0.02 C 0 km/h
484 10-01-2011 03:00:00 0.2 C 4.62 g/m*3 0.2 C 0 km/h
485 10-01-2011 04:00:00 0.38 C 4.68 g/m*3 0.38 C 0 km/h
486 10-01-2011 05:00:00 0.26 C 4.63 g/m*3 0.26 C 0 km/h
487 10-01-2011 06:00:00 0.2 C 4.57 g/m*3 0.2 C 0 km/h
488 10-01-2011 07:00:00 0.1 C 4.54 g/m*3 0.1 C 0 km/h
489 10-01-2011 08:00:00 0.18 C 4.5 g/m*3 0.18 C 0 km/h
490 10-01-2011 09:00:00 0.32 C 4.45 g/m*3 0.32 C 0 km/h
491 10-01-2011 10:00:00 0.54 C 4.37 g/m*3 0.54 C 0 km/h
492 10-01-2011 11:00:00 0.88 C 4.22 g/m*3 0.88 C 0 km/h
493 10-01-2011 12:00:00 1.78 C 4.3 g/m*3 1.78 C 0 km/h
494 10-01-2011 13:00:00 2.1 C 4.39 g/m*3 2.1 C 0 km/h
495 10-01-2011 14:00:00 2.26 C 4.42 g/m*3 2.26 C 0 km/h
496 10-01-2011 15:00:00 2.1 C 4.36 g/m*3 2.1 C 0 km/h
497 10-01-2011 16:00:00 1.86 C 4.33 g/m*3 1.86 C 0 km/h
498 10-01-2011 17:00:00 0.84 C 4.24 g/m*3 0.84 C 0 km/h
499 10-01-2011 18:00:00 0.22 C 4.16 g/m*3 0.22 C 0 km/h
500 10-01-2011 19:00:00 0.26 C 4.32 g/m*3 0.26 C 0 km/h
Sensor: Nr:Datum:Temp:Abs-Feuchte:Windchill:Wind:
Aussen-T/F 501 10-01-2011 20:00:00 0.68 C 4.35 g/m*3 0.68 C 0 km/h
502 10-01-2011 21:00:00 0.56 C 4.04 g/m*3 0.56 C 0 km/h
503 10-01-2011 22:00:00 0.5 C 4.05 g/m*3 0.5 C 0 km/h
504 10-01-2011 23:00:00 0.54 C 4.04 g/m*3 0.54 C 0 km/h
505 11-01-2011 00:00:00 0.16 C 3.93 g/m*3 0.16 C 0 km/h
506 11-01-2011 01:00:00 -0.12 C 4.08 g/m*3 -0.12 C 0 km/h
507 11-01-2011 02:00:00 0.78 C 4.17 g/m*3 0.78 C 0 km/h
508 11-01-2011 03:00:00 0.72 C 4.05 g/m*3 0.72 C 0 km/h
509 11-01-2011 04:00:00 0.42 C 4.05 g/m*3 0.42 C 0 km/h
510 11-01-2011 05:00:00 1.1 C 4.13 g/m*3 1.1 C 0 km/h
511 11-01-2011 06:00:00 1.26 C 4.2 g/m*3 1.26 C 0 km/h
512 11-01-2011 07:00:00 1.42 C 4.33 g/m*3 1.42 C 0 km/h
513 11-01-2011 08:00:00 1.5 C 4.45 g/m*3 1.5 C 0 km/h
514 11-01-2011 09:00:00 2.06 C 4.66 g/m*3 2.06 C 0 km/h
515 11-01-2011 10:00:00 3.04 C 4.63 g/m*3 3.04 C 0 km/h
516 11-01-2011 11:00:00 3.28 C 4.9 g/m*3 3.28 C 0 km/h
517 11-01-2011 12:00:00 5.5 C 4.62 g/m*3 5.5 C 0 km/h
518 11-01-2011 13:00:00 5.3 C 4.75 g/m*3 5.3 C 0 km/h
519 11-01-2011 14:00:00 5.3 C 4.89 g/m*3 5.3 C 0 km/h
520 11-01-2011 15:00:00 5.36 C 5.07 g/m*3 5.36 C 0 km/h
521 11-01-2011 16:00:00 4.58 C 5.42 g/m*3 4.58 C 0 km/h
522 11-01-2011 17:00:00 5.1 C 5.46 g/m*3 5.1 C 0 km/h
523 11-01-2011 18:00:00 5.48 C 5.51 g/m*3 5.48 C 0 km/h
524 11-01-2011 19:00:00 5.98 C 5.57 g/m*3 5.98 C 0 km/h
525 11-01-2011 20:00:00 6.14 C 5.6 g/m*3 6.14 C 0 km/h
Sensor: Nr:Datum:Temp:Abs-Feuchte:Windchill:Wind:
Aussen-T/F 526 11-01-2011 21:00:00 6.16 C 5.66 g/m*3 6.16 C 0 km/h
527 11-01-2011 22:00:00 5.96 C 5.91 g/m*3 5.96 C 0 km/h
528 11-01-2011 23:00:00 6 C 6.01 g/m*3 6 C 0 km/h
529 12-01-2011 00:00:00 6.14 C 5.46 g/m*3 6.14 C 0 km/h
530 12-01-2011 01:00:00 5.96 C 5.23 g/m*3 5.96 C 0 km/h
531 12-01-2011 02:00:00 5.9 C 5.06 g/m*3 5.9 C 0 km/h
532 12-01-2011 03:00:00 4.92 C 5.18 g/m*3 4.92 C 0 km/h
533 12-01-2011 04:00:00 4.08 C 5.34 g/m*3 4.08 C 0 km/h
534 12-01-2011 05:00:00 3.76 C 5.24 g/m*3 3.76 C 0 km/h
535 12-01-2011 06:00:00 3.56 C 5.12 g/m*3 3.56 C 0 km/h
536 12-01-2011 07:00:00 3.32 C 5.02 g/m*3 3.32 C 0 km/h
537 12-01-2011 08:00:00 2.98 C 4.99 g/m*3 2.98 C 0 km/h
538 12-01-2011 09:00:00 3.84 C 5.04 g/m*3 3.84 C 0 km/h
539 12-01-2011 10:00:00 4.82 C 4.87 g/m*3 4.82 C 0 km/h
540 12-01-2011 11:00:00 5.26 C 4.85 g/m*3 5.26 C 0 km/h
541 12-01-2011 12:00:00 4.88 C 5.08 g/m*3 4.88 C 0 km/h
542 12-01-2011 13:00:00 4.9 C 5.37 g/m*3 4.9 C 0 km/h
543 12-01-2011 14:00:00 5.12 C 5.52 g/m*3 5.12 C 0 km/h
544 12-01-2011 15:00:00 5.42 C 5.51 g/m*3 5.42 C 0 km/h
545 12-01-2011 16:00:00 6.04 C 5.47 g/m*3 6.04 C 0 km/h
546 12-01-2011 17:00:00 6.2 C 5.6 g/m*3 6.2 C 0 km/h
547 12-01-2011 18:00:00 6.12 C 5.91 g/m*3 6.12 C 0 km/h
548 12-01-2011 19:00:00 6.3 C 6.17 g/m*3 6.3 C 0 km/h
549 12-01-2011 20:00:00 6.98 C 6.28 g/m*3 6.98 C 0 km/h
550 12-01-2011 21:00:00 7.34 C 6.51 g/m*3 7.34 C 0 km/h
Sensor: Nr:Datum:Temp:Abs-Feuchte:Windchill:Wind:
Aussen-T/F 551 12-01-2011 22:00:00 7.96 C 6.71 g/m*3 7.96 C 0 km/h
552 12-01-2011 23:00:00 8.76 C 6.82 g/m*3 8.76 C 0 km/h
553 13-01-2011 00:00:00 9.3 C 6.99 g/m*3 9.3 C 0 km/h
554 13-01-2011 01:00:00 9.98 C 7.26 g/m*3 9.98 C 0 km/h
555 13-01-2011 02:00:00 10.6 C 7.55 g/m*3 10.6 C 0 km/h
556 13-01-2011 03:00:00 10.32 C 7.84 g/m*3 10.32 C 0 km/h
557 13-01-2011 04:00:00 10.7 C 8.05 g/m*3 10.7 C 0 km/h
558 13-01-2011 05:00:00 10.84 C 8.13 g/m*3 10.84 C 0 km/h
559 13-01-2011 06:00:00 10.58 C 8.31 g/m*3 10.58 C 0 km/h
560 13-01-2011 07:00:00 10.66 C 8.46 g/m*3 10.66 C 0 km/h
561 13-01-2011 08:00:00 10.84 C 8.46 g/m*3 10.84 C 0 km/h
562 13-01-2011 09:00:00 11.26 C 8.44 g/m*3 11.26 C 0 km/h
563 13-01-2011 10:00:00 11.94 C 8.32 g/m*3 11.94 C 0 km/h
564 13-01-2011 11:00:00 12.52 C 8.26 g/m*3 12.52 C 0 km/h
565 13-01-2011 12:00:00 12.46 C 8.31 g/m*3 12.46 C 0 km/h
566 13-01-2011 13:00:00 12.54 C 8.4 g/m*3 12.54 C 0 km/h
567 13-01-2011 14:00:00 13.18 C 8.28 g/m*3 13.18 C 0 km/h
568 13-01-2011 15:00:00 13.06 C 8.26 g/m*3 13.06 C 0 km/h
569 13-01-2011 16:00:00 12.9 C 8.48 g/m*3 12.9 C 0 km/h
570 13-01-2011 17:00:00 12.86 C 8.5 g/m*3 12.86 C 0 km/h
571 13-01-2011 18:00:00 12.84 C 8.42 g/m*3 12.84 C 0 km/h
572 13-01-2011 19:00:00 12.82 C 8.5 g/m*3 12.82 C 0 km/h
573 13-01-2011 20:00:00 12.7 C 8.53 g/m*3 12.7 C 0 km/h
574 13-01-2011 21:00:00 12.82 C 8.46 g/m*3 12.82 C 0 km/h
575 13-01-2011 22:00:00 12.82 C 8.34 g/m*3 12.82 C 0 km/h
Sensor: Nr:Datum:Temp:Abs-Feuchte:Windchill:Wind:
Aussen-T/F 576 13-01-2011 23:00:00 12.74 C 8.26 g/m*3 12.74 C 0 km/h
577 14-01-2011 00:00:00 12.56 C 8.14 g/m*3 12.56 C 0 km/h
578 14-01-2011 01:00:00 12.5 C 8.09 g/m*3 12.5 C 0 km/h
579 14-01-2011 02:00:00 12.34 C 7.95 g/m*3 12.34 C 0 km/h
580 14-01-2011 03:00:00 12.24 C 7.83 g/m*3 12.24 C 0 km/h
581 14-01-2011 04:00:00 12.24 C 7.81 g/m*3 12.24 C 0 km/h
582 14-01-2011 05:00:00 12.26 C 7.8 g/m*3 12.26 C 0 km/h
583 14-01-2011 06:00:00 12.56 C 7.61 g/m*3 12.56 C 0 km/h
584 14-01-2011 07:00:00 12.3 C 7.36 g/m*3 12.3 C 0 km/h
585 14-01-2011 08:00:00 11.66 C 6.99 g/m*3 11.66 C 0 km/h
586 14-01-2011 09:00:00 11.46 C 6.84 g/m*3 11.46 C 0 km/h
587 14-01-2011 10:00:00 11.74 C 6.71 g/m*3 11.74 C 0 km/h
588 14-01-2011 11:00:00 12.02 C 6.62 g/m*3 12.02 C 0 km/h
589 14-01-2011 12:00:00 12.14 C 6.54 g/m*3 12.14 C 0 km/h
590 14-01-2011 13:00:00 12 C 6.63 g/m*3 12 C 0 km/h
591 14-01-2011 14:00:00 11.64 C 6.81 g/m*3 11.64 C 0 km/h
592 14-01-2011 15:00:00 12.12 C 6.55 g/m*3 12.12 C 0 km/h
593 14-01-2011 16:00:00 11.96 C 6.4 g/m*3 11.96 C 0 km/h
594 14-01-2011 17:00:00 11.52 C 6.33 g/m*3 11.52 C 0 km/h
595 14-01-2011 18:00:00 11.04 C 6.32 g/m*3 11.04 C 0 km/h
596 14-01-2011 19:00:00 11.14 C 6.24 g/m*3 11.14 C 0 km/h
597 14-01-2011 20:00:00 11.68 C 6.08 g/m*3 11.68 C 0 km/h
598 14-01-2011 21:00:00 11.4 C 6.01 g/m*3 11.4 C 0 km/h
599 14-01-2011 22:00:00 10.82 C 6.25 g/m*3 10.82 C 0 km/h
600 14-01-2011 23:00:00 9.24 C 6.77 g/m*3 9.24 C 0 km/h
Sensor: Nr:Datum:Temp:Abs-Feuchte:Windchill:Wind:
Aussen-T/F 601 15-01-2011 00:00:00 8.22 C 6.64 g/m*3 8.22 C 0 km/h
602 15-01-2011 01:00:00 8.22 C 6.41 g/m*3 8.22 C 0 km/h
603 15-01-2011 02:00:00 8.04 C 6.43 g/m*3 8.04 C 0 km/h
604 15-01-2011 03:00:00 8.12 C 6.47 g/m*3 8.12 C 0 km/h
605 15-01-2011 04:00:00 8.22 C 6.41 g/m*3 8.22 C 0 km/h
606 15-01-2011 05:00:00 7.96 C 6.14 g/m*3 7.96 C 0 km/h
607 15-01-2011 06:00:00 7.44 C 6.22 g/m*3 7.44 C 0 km/h
608 15-01-2011 07:00:00 7.08 C 6.14 g/m*3 7.08 C 0 km/h
609 15-01-2011 08:00:00 7.68 C 6.14 g/m*3 7.68 C 0 km/h
610 15-01-2011 09:00:00 8.3 C 5.98 g/m*3 8.3 C 0 km/h
611 15-01-2011 10:00:00 9.06 C 5.91 g/m*3 9.06 C 0 km/h
612 15-01-2011 11:00:00 9.86 C 5.89 g/m*3 9.86 C 0 km/h
613 15-01-2011 12:00:00 10.2 C 5.73 g/m*3 10.2 C 0 km/h
614 15-01-2011 13:00:00 10.04 C 5.58 g/m*3 10.04 C 0 km/h
615 15-01-2011 14:00:00 10.04 C 5.54 g/m*3 10.04 C 0 km/h
616 15-01-2011 15:00:00 9.62 C 5.52 g/m*3 9.62 C 0 km/h
617 15-01-2011 16:00:00 8.9 C 5.71 g/m*3 8.9 C 0 km/h
618 15-01-2011 17:00:00 9.02 C 5.65 g/m*3 9.02 C 0 km/h
619 15-01-2011 18:00:00 8.98 C 5.78 g/m*3 8.98 C 0 km/h
620 15-01-2011 19:00:00 9.18 C 5.69 g/m*3 9.18 C 0 km/h
621 15-01-2011 20:00:00 8.92 C 5.68 g/m*3 8.92 C 0 km/h
622 15-01-2011 21:00:00 8.04 C 5.62 g/m*3 8.04 C 0 km/h
623 15-01-2011 22:00:00 8.6 C 5.89 g/m*3 8.6 C 0 km/h
624 15-01-2011 23:00:00 8.62 C 5.89 g/m*3 8.62 C 0 km/h
625 16-01-2011 00:00:00 8.9 C 5.83 g/m*3 8.9 C 0 km/h
Sensor: Nr:Datum:Temp:Abs-Feuchte:Windchill:Wind:
Aussen-T/F 626 16-01-2011 01:00:00 8.24 C 5.69 g/m*3 8.24 C 0 km/h
627 16-01-2011 02:00:00 7.96 C 5.77 g/m*3 7.96 C 0 km/h
628 16-01-2011 03:00:00 8.14 C 5.71 g/m*3 8.14 C 0 km/h
629 16-01-2011 04:00:00 8.22 C 5.75 g/m*3 8.22 C 0 km/h
630 16-01-2011 05:00:00 7.16 C 5.98 g/m*3 7.16 C 0 km/h
631 16-01-2011 06:00:00 7.06 C 6.08 g/m*3 7.06 C 0 km/h
632 16-01-2011 07:00:00 7.88 C 6.07 g/m*3 7.88 C 0 km/h
633 16-01-2011 08:00:00 8.22 C 5.87 g/m*3 8.22 C 0 km/h
634 16-01-2011 09:00:00 8.04 C 5.9 g/m*3 8.04 C 0 km/h
635 16-01-2011 10:00:00 7.98 C 5.91 g/m*3 7.98 C 0 km/h
636 16-01-2011 11:00:00 8.36 C 5.99 g/m*3 8.36 C 0 km/h
637 16-01-2011 12:00:00 8.64 C 6.15 g/m*3 8.64 C 0 km/h
638 16-01-2011 13:00:00 8.82 C 6.19 g/m*3 8.82 C 0 km/h
639 16-01-2011 14:00:00 8.46 C 6.27 g/m*3 8.46 C 0 km/h
640 16-01-2011 15:00:00 9.92 C 6.23 g/m*3 9.92 C 0 km/h
641 16-01-2011 16:00:00 8.04 C 6.35 g/m*3 8.04 C 0 km/h
642 16-01-2011 17:00:00 5.92 C 6.14 g/m*3 5.92 C 0 km/h
643 16-01-2011 18:00:00 4.84 C 5.92 g/m*3 4.84 C 0 km/h
644 16-01-2011 19:00:00 4.22 C 5.77 g/m*3 4.22 C 0 km/h
645 16-01-2011 20:00:00 3.26 C 5.47 g/m*3 3.26 C 0 km/h
646 16-01-2011 21:00:00 2.4 C 5.2 g/m*3 2.4 C 0 km/h
647 16-01-2011 22:00:00 2.16 C 5.16 g/m*3 2.16 C 0 km/h
648 16-01-2011 23:00:00 1.36 C 4.89 g/m*3 1.36 C 0 km/h
649 17-01-2011 00:00:00 1.4 C 4.93 g/m*3 1.4 C 0 km/h
650 17-01-2011 01:00:00 1.18 C 4.88 g/m*3 1.18 C 0 km/h
Sensor: Nr:Datum:Temp:Abs-Feuchte:Windchill:Wind:
Aussen-T/F 651 17-01-2011 02:00:00 1.12 C 4.87 g/m*3 1.12 C 0 km/h
652 17-01-2011 03:00:00 1.04 C 4.87 g/m*3 1.04 C 0 km/h
653 17-01-2011 04:00:00 -0.04 C 4.49 g/m*3 -0.04 C 0 km/h
654 17-01-2011 05:00:00 0.08 C 4.55 g/m*3 0.08 C 0 km/h
655 17-01-2011 06:00:00 -0.62 C 4.32 g/m*3 -0.62 C 0 km/h
656 17-01-2011 07:00:00 -0.4 C 4.4 g/m*3 -0.4 C 0 km/h
657 17-01-2011 08:00:00 -0.66 C 4.32 g/m*3 -0.66 C 0 km/h
658 17-01-2011 09:00:00 0.72 C 4.79 g/m*3 0.72 C 0 km/h
659 17-01-2011 10:00:00 0.68 C 4.77 g/m*3 0.68 C 0 km/h
660 17-01-2011 11:00:00 2.14 C 5.26 g/m*3 2.14 C 0 km/h
661 17-01-2011 12:00:00 5.42 C 6.5 g/m*3 5.42 C 0 km/h
662 17-01-2011 13:00:00 6.06 C 6.54 g/m*3 6.06 C 0 km/h
663 17-01-2011 14:00:00 6.4 C 6.08 g/m*3 6.4 C 0 km/h
664 17-01-2011 15:00:00 6.18 C 5.9 g/m*3 6.18 C 0 km/h
665 17-01-2011 16:00:00 6.18 C 5.96 g/m*3 6.18 C 0 km/h
666 17-01-2011 17:00:00 6.2 C 5.82 g/m*3 6.2 C 0 km/h
667 17-01-2011 18:00:00 5.98 C 6.05 g/m*3 5.98 C 0 km/h
668 17-01-2011 19:00:00 6.22 C 6.1 g/m*3 6.22 C 0 km/h
669 17-01-2011 20:00:00 6.94 C 6.19 g/m*3 6.94 C 0 km/h
670 17-01-2011 21:00:00 8.04 C 6.23 g/m*3 8.04 C 0 km/h
671 17-01-2011 22:00:00 8.28 C 6.13 g/m*3 8.28 C 0 km/h
672 17-01-2011 23:00:00 8.56 C 6.24 g/m*3 8.56 C 0 km/h
673 18-01-2011 00:00:00 7.64 C 6.14 g/m*3 7.64 C 0 km/h
674 18-01-2011 01:00:00 6.84 C 6.13 g/m*3 6.84 C 0 km/h
675 18-01-2011 02:00:00 5.24 C 5.94 g/m*3 5.24 C 0 km/h
Sensor: Nr:Datum:Temp:Abs-Feuchte:Windchill:Wind:
Aussen-T/F 676 18-01-2011 03:00:00 7.1 C 6.1 g/m*3 7.1 C 0 km/h
677 18-01-2011 04:00:00 7.06 C 5.96 g/m*3 7.06 C 0 km/h
678 18-01-2011 05:00:00 7.68 C 5.94 g/m*3 7.68 C 0 km/h
679 18-01-2011 06:00:00 7.26 C 5.97 g/m*3 7.26 C 0 km/h
680 18-01-2011 07:00:00 7.14 C 6.04 g/m*3 7.14 C 0 km/h
681 18-01-2011 08:00:00 7.3 C 5.97 g/m*3 7.3 C 0 km/h
682 18-01-2011 09:00:00 8.44 C 6.04 g/m*3 8.44 C 0 km/h
683 18-01-2011 10:00:00 8.84 C 6.09 g/m*3 8.84 C 0 km/h
684 18-01-2011 11:00:00 8.74 C 6.05 g/m*3 8.74 C 0 km/h
685 18-01-2011 12:00:00 9.7 C 6.07 g/m*3 9.7 C 0 km/h
686 18-01-2011 13:00:00 9.7 C 6.05 g/m*3 9.7 C 0 km/h
687 18-01-2011 14:00:00 9.72 C 5.94 g/m*3 9.72 C 0 km/h
688 18-01-2011 15:00:00 9.42 C 5.67 g/m*3 9.42 C 0 km/h
689 18-01-2011 16:00:00 8.38 C 5.78 g/m*3 8.38 C 0 km/h
690 18-01-2011 17:00:00 6.54 C 6.42 g/m*3 6.54 C 0 km/h
691 18-01-2011 18:00:00 6.16 C 6.31 g/m*3 6.16 C 0 km/h
692 18-01-2011 19:00:00 5.86 C 6.26 g/m*3 5.86 C 0 km/h
693 18-01-2011 20:00:00 5.74 C 6.04 g/m*3 5.74 C 0 km/h
694 18-01-2011 21:00:00 5.1 C 5.62 g/m*3 5.1 C 0 km/h
695 18-01-2011 22:00:00 4.64 C 5.48 g/m*3 4.64 C 0 km/h
696 18-01-2011 23:00:00 4.68 C 5.47 g/m*3 4.68 C 0 km/h
697 19-01-2011 00:00:00 4.36 C 5.2 g/m*3 4.36 C 0 km/h
698 19-01-2011 01:00:00 3.88 C 4.77 g/m*3 3.88 C 0 km/h
699 19-01-2011 02:00:00 3.42 C 4.67 g/m*3 3.42 C 0 km/h
700 19-01-2011 03:00:00 2.92 C 4.8 g/m*3 2.92 C 0 km/h
Sensor: Nr:Datum:Temp:Abs-Feuchte:Windchill:Wind:
Aussen-T/F 701 19-01-2011 04:00:00 2.8 C 4.89 g/m*3 2.8 C 0 km/h
702 19-01-2011 05:00:00 2.56 C 4.99 g/m*3 2.56 C 0 km/h
703 19-01-2011 06:00:00 2.64 C 4.99 g/m*3 2.64 C 0 km/h
704 19-01-2011 07:00:00 2.8 C 4.85 g/m*3 2.8 C 0 km/h
705 19-01-2011 08:00:00 2.4 C 4.86 g/m*3 2.4 C 0 km/h
706 19-01-2011 09:00:00 2.7 C 4.81 g/m*3 2.7 C 0 km/h
707 19-01-2011 10:00:00 2.4 C 4.68 g/m*3 2.4 C 0 km/h
708 19-01-2011 11:00:00 3.64 C 4.84 g/m*3 3.64 C 0 km/h
709 19-01-2011 12:00:00 4.44 C 4.64 g/m*3 4.44 C 0 km/h
710 19-01-2011 13:00:00 4.94 C 4.35 g/m*3 4.94 C 0 km/h
711 19-01-2011 14:00:00 5.36 C 4.24 g/m*3 5.36 C 0 km/h
712 19-01-2011 15:00:00 4.94 C 4.13 g/m*3 4.94 C 0 km/h
713 19-01-2011 16:00:00 4.18 C 4.38 g/m*3 4.18 C 0 km/h
714 19-01-2011 17:00:00 3.34 C 4.54 g/m*3 3.34 C 0 km/h
715 19-01-2011 18:00:00 2.94 C 4.7 g/m*3 2.94 C 0 km/h
716 19-01-2011 19:00:00 3.2 C 4.46 g/m*3 3.2 C 0 km/h
717 19-01-2011 20:00:00 2.36 C 4.69 g/m*3 2.36 C 0 km/h
718 19-01-2011 21:00:00 2.5 C 4.78 g/m*3 2.5 C 0 km/h
719 19-01-2011 22:00:00 2.4 C 4.73 g/m*3 2.4 C 0 km/h
720 19-01-2011 23:00:00 2.28 C 4.69 g/m*3 2.28 C 0 km/h

Maximal/Minimal-Werte vom 21.12.2010 - 19.01.2011

Sensor Min Max Avg
Temp
(Aussen-T/F)
-9.3 °C
30-12-2010  05:49:01
14.7 °C
08-01-2011  14:22:02
2.18 °C
Abs-Feuchte
(Aussen-T/F)
1.82 g/m*3
26-12-2010  03:00:00
8.53 g/m*3
13-01-2011  20:00:00
4.69 g/m*3
Windchill
(Aussen-T/F)
-9.04 C
26-12-2010  03:00:00
14.4 C
08-01-2011  14:00:00
2.18 C

Die Daten stammen von einer Davis Vantage Pro 2 Wetter-Station und werden unter Linux mit der Software wview2wettercgi und aufbereitet. Alle Angaben erfolgen ohne Gewähr für ihre Vollständigkeit oder Richtigkeit.
Kontakt: Rainer Krienke krienke@uni-koblenz.de . Meine Webseiten an der Uni Koblenz oder privat.
Version: $Revision: 0.78 $